Time;durP1;ratioP1;P1;durP2;ratioP2;P2;SDS_P1;SDS_P2;PMS_P1;PMS_P2;Temp;Humidity;BMP_temperature;BMP_pressure;BME280_temperature;BME280_humidity;BME280_pressure;Samples;Min_cycle;Max_cycle;Signal;HPM_P1;HPM_P2
2023/06/27 00:00:17;;;;;;;9.18;3.30;;;;;;;18.43;60.31;101905.75;5055558;28;20390;-62
2023/06/27 00:02:46;;;;;;;10.07;3.38;;;;;;;18.52;60.21;101907.50;5055750;28;20025;-62
2023/06/27 00:05:11;;;;;;;12.13;3.70;;;;;;;18.59;60.09;101906.56;5055510;28;20052;-62
2023/06/27 00:07:38;;;;;;;8.55;3.60;;;;;;;18.51;60.24;101911.06;5055595;28;20116;-61
2023/06/27 00:10:04;;;;;;;10.23;3.50;;;;;;;18.60;60.57;101907.47;5055506;28;20146;-61
2023/06/27 00:12:30;;;;;;;10.35;3.30;;;;;;;18.59;60.49;101906.56;5055102;28;20221;-62
2023/06/27 00:14:56;;;;;;;14.32;3.80;;;;;;;18.59;60.28;101911.94;5055129;28;20033;-61
2023/06/27 00:17:23;;;;;;;12.63;3.55;;;;;;;18.53;60.22;101915.50;5055158;28;20078;-61
2023/06/27 00:19:49;;;;;;;8.57;3.60;;;;;;;18.65;60.63;101905.66;5055432;28;20037;-62
2023/06/27 00:22:15;;;;;;;9.57;3.33;;;;;;;18.52;60.79;101908.38;5055260;28;20048;-62
2023/06/27 00:24:41;;;;;;;13.55;3.70;;;;;;;18.45;61.41;101903.06;5055336;28;20481;-62
2023/06/27 00:27:07;;;;;;;9.43;3.60;;;;;;;18.46;61.42;101911.09;5055012;28;20033;-62
2023/06/27 00:29:33;;;;;;;10.55;3.65;;;;;;;18.48;61.27;101905.72;5054985;28;20032;-62
2023/06/27 00:31:58;;;;;;;16.00;3.50;;;;;;;18.45;61.34;101909.31;5037187;28;20462;-62
2023/06/27 00:34:23;;;;;;;9.55;3.70;;;;;;;18.44;61.14;101903.97;5055105;28;20070;-61
2023/06/27 00:36:49;;;;;;;8.95;3.67;;;;;;;18.57;60.64;101894.97;5054905;28;20375;-62
2023/06/27 00:39:14;;;;;;;10.07;3.58;;;;;;;18.59;60.81;101900.34;5054808;28;20021;-61
2023/06/27 00:41:40;;;;;;;9.88;3.78;;;;;;;18.57;60.66;101894.97;5054824;28;20028;-62
2023/06/27 00:44:08;;;;;;;12.68;3.70;;;;;;;18.53;61.31;101902.13;5054728;28;20029;-61
2023/06/27 00:46:37;;;;;;;9.35;3.67;;;;;;;18.61;60.46;101901.19;5054640;28;20367;-61
2023/06/27 00:49:03;;;;;;;12.63;3.63;;;;;;;18.49;61.05;101903.03;5054928;28;20044;-62
2023/06/27 00:51:29;;;;;;;11.02;3.60;;;;;;;18.52;61.42;101903.03;5054715;28;20028;-62
2023/06/27 00:53:55;;;;;;;11.95;3.70;;;;;;;18.42;61.87;101906.66;5054633;28;20036;-62
2023/06/27 00:56:21;;;;;;;9.77;3.63;;;;;;;18.43;61.59;101912.91;5054472;28;20025;-62
2023/06/27 00:58:46;;;;;;;8.95;3.67;;;;;;;18.42;61.49;101911.13;5053875;28;20509;-62
2023/06/27 01:01:12;;;;;;;12.57;3.65;;;;;;;18.43;61.50;101900.41;5054062;28;20540;-62
2023/06/27 01:03:37;;;;;;;8.52;3.80;;;;;;;18.39;61.45;101912.03;5054664;28;20104;-61
2023/06/27 01:06:10;;;;;;;10.27;3.67;;;;;;;18.33;61.67;101916.50;5054347;28;20548;-62
2023/06/27 01:08:44;;;;;;;12.70;3.80;;;;;;;18.34;61.76;101908.47;5054180;28;20493;-62
2023/06/27 01:11:35;;;;;;;13.60;3.65;;;;;;;18.37;60.75;101913.81;5054123;28;20470;-62
2023/06/27 01:14:03;;;;;;;14.52;3.67;;;;;;;18.32;61.91;101910.25;5054117;28;20043;-62
2023/06/27 01:16:32;;;;;;;9.35;3.28;;;;;;;18.31;62.01;101908.47;5054025;28;20091;-63
2023/06/27 01:19:01;;;;;;;13.25;4.00;;;;;;;18.38;61.92;101906.69;5054061;28;20029;-62
2023/06/27 01:21:28;;;;;;;14.73;3.88;;;;;;;18.33;62.27;101904.03;5036124;28;20028;-64
2023/06/27 01:23:55;;;;;;;10.35;3.60;;;;;;;18.47;61.88;101909.31;5054280;28;20033;-62
2023/06/27 01:26:22;;;;;;;11.48;3.72;;;;;;;18.41;61.90;101901.28;5053849;28;20033;-62
2023/06/27 01:28:48;;;;;;;11.05;3.75;;;;;;;18.36;62.23;101908.47;5053919;28;20017;-62
2023/06/27 01:31:23;;;;;;;10.30;3.65;;;;;;;18.31;61.95;101903.13;5053909;28;20057;-62
2023/06/27 01:33:57;;;;;;;8.13;3.65;;;;;;;18.27;61.77;101904.94;5053630;28;20056;-62
2023/06/27 01:36:30;;;;;;;14.00;3.92;;;;;;;18.14;62.84;101907.66;5053999;28;20087;-62
2023/06/27 01:39:06;;;;;;;7.10;3.42;;;;;;;18.20;62.42;101904.94;5053357;28;20032;-62
2023/06/27 01:41:36;;;;;;;11.68;3.45;;;;;;;18.19;62.33;101906.75;5053579;28;20063;-62
2023/06/27 01:44:04;;;;;;;9.00;3.40;;;;;;;18.30;62.10;101912.06;5053634;28;20078;-62
2023/06/27 01:46:30;;;;;;;11.73;3.30;;;;;;;18.29;62.10;101909.41;5053615;28;20085;-63
2023/06/27 01:48:57;;;;;;;11.32;3.65;;;;;;;18.26;62.26;101904.94;5053550;28;20056;-62
2023/06/27 01:51:22;;;;;;;12.98;4.07;;;;;;;18.23;62.41;101904.94;5053487;28;20032;-61
2023/06/27 01:53:47;;;;;;;9.40;3.50;;;;;;;18.20;62.45;101907.63;5053311;28;20025;-62
2023/06/27 01:56:13;;;;;;;9.93;3.33;;;;;;;18.21;62.79;101902.28;5053227;28;20036;-62
2023/06/27 01:58:39;;;;;;;13.70;3.90;;;;;;;18.15;63.02;101902.28;5053171;28;20578;-62
2023/06/27 02:01:04;;;;;;;11.10;3.97;;;;;;;18.11;63.07;101902.31;5053151;28;20162;-63
2023/06/27 02:03:30;;;;;;;9.68;3.45;;;;;;;18.11;63.12;101895.16;5053432;28;20066;-63
2023/06/27 02:05:55;;;;;;;12.55;3.72;;;;;;;18.07;63.47;101898.75;5053296;28;20029;-62
2023/06/27 02:08:21;;;;;;;14.30;3.50;;;;;;;18.01;63.51;101897.00;5053027;28;20037;-62
2023/06/27 02:10:46;;;;;;;8.05;3.45;;;;;;;17.97;63.91;101897.00;5053175;28;20067;-62
2023/06/27 02:13:12;;;;;;;14.00;3.63;;;;;;;17.94;63.90;101892.59;5052994;28;20367;-62
2023/06/27 02:15:37;;;;;;;8.00;3.60;;;;;;;17.89;64.14;101888.13;5052812;28;20493;-62
2023/06/27 02:18:04;;;;;;;12.48;3.65;;;;;;;17.98;64.02;101896.09;5053015;28;20033;-62
2023/06/27 02:20:29;;;;;;;7.35;3.60;;;;;;;17.99;64.44;101890.78;5053215;28;20421;-62
2023/06/27 02:22:55;;;;;;;11.68;3.90;;;;;;;17.83;64.89;101891.72;5052877;28;20036;-62
2023/06/27 02:25:20;;;;;;;15.48;4.00;;;;;;;17.82;64.72;101889.94;5035039;28;20029;-62
2023/06/27 02:27:46;;;;;;;12.05;3.70;;;;;;;17.88;64.24;101884.56;5052857;28;20554;-62
2023/06/27 02:30:12;;;;;;;9.15;3.60;;;;;;;17.93;64.78;101881.88;5052770;28;20087;-61
2023/06/27 02:32:38;;;;;;;10.95;3.72;;;;;;;17.87;64.75;101882.78;5052282;28;20501;-62
2023/06/27 02:35:03;;;;;;;13.30;3.90;;;;;;;17.94;64.55;101880.97;5052745;28;20031;-64
2023/06/27 02:37:29;;;;;;;14.70;4.00;;;;;;;17.89;65.07;101880.09;5052737;28;20025;-62
2023/06/27 02:39:56;;;;;;;11.70;4.10;;;;;;;17.82;64.87;101884.59;5052490;28;20029;-62
2023/06/27 02:42:21;;;;;;;12.82;3.85;;;;;;;17.78;65.13;101880.16;5052547;28;20029;-62
2023/06/27 02:44:48;;;;;;;11.52;3.85;;;;;;;17.83;65.00;101880.13;5052745;28;20017;-62
2023/06/27 02:47:18;;;;;;;11.90;3.60;;;;;;;17.77;65.31;101878.34;5052743;28;20028;-62
2023/06/27 02:49:43;;;;;;;9.95;3.70;;;;;;;17.74;65.43;101881.94;5052752;28;20032;-62
2023/06/27 02:52:08;;;;;;;12.65;3.60;;;;;;;17.69;65.54;101891.72;5052590;28;20025;-63
2023/06/27 02:54:34;;;;;;;12.00;4.15;;;;;;;17.66;65.34;101880.13;5052540;28;20386;-62
2023/06/27 02:56:59;;;;;;;15.05;4.00;;;;;;;17.62;65.86;101878.34;5051934;28;20076;-62
2023/06/27 02:59:25;;;;;;;10.38;3.50;;;;;;;17.65;65.93;101879.25;5052105;28;20074;-63
2023/06/27 03:01:50;;;;;;;18.33;4.20;;;;;;;17.52;66.69;101885.50;5051999;28;20041;-62
2023/06/27 03:04:21;;;;;;;13.95;3.92;;;;;;;17.43;66.87;101896.19;5052278;28;20106;-63
2023/06/27 03:06:46;;;;;;;14.55;4.25;;;;;;;17.34;67.03;101897.06;5052445;28;20060;-62
2023/06/27 03:09:12;;;;;;;9.95;3.88;;;;;;;17.40;66.90;101896.19;5052417;28;20060;-62
2023/06/27 03:11:37;;;;;;;10.70;3.65;;;;;;;17.35;67.13;101895.31;5052324;28;20356;-62
2023/06/27 03:14:02;;;;;;;9.38;3.50;;;;;;;17.36;67.13;101892.63;5034204;28;20028;-63
2023/06/27 03:16:28;;;;;;;12.95;4.00;;;;;;;17.29;67.60;101885.50;5052580;28;20420;-62
2023/06/27 03:18:53;;;;;;;13.45;3.80;;;;;;;17.27;67.67;101892.63;5052333;28;20029;-62
2023/06/27 03:21:19;;;;;;;16.15;3.60;;;;;;;17.30;67.53;101897.06;5051699;28;20029;-62
2023/06/27 03:23:44;;;;;;;14.98;3.83;;;;;;;17.33;67.50;101889.97;5054376;28;20116;-62
2023/06/27 03:26:10;;;;;;;12.80;4.00;;;;;;;17.38;67.53;101898.84;5055569;28;20422;-63
2023/06/27 03:28:35;;;;;;;13.27;4.10;;;;;;;17.36;67.55;101897.09;5055468;28;20082;-62
2023/06/27 03:31:01;;;;;;;11.25;3.70;;;;;;;17.42;67.39;101891.72;5055468;28;20056;-62
2023/06/27 03:33:26;;;;;;;11.38;3.80;;;;;;;17.44;67.31;101885.50;5055302;28;20044;-62
2023/06/27 03:35:53;;;;;;;10.60;3.92;;;;;;;17.51;66.91;101892.63;5055549;28;20033;-62
2023/06/27 03:38:18;;;;;;;11.35;3.60;;;;;;;17.57;66.86;101886.38;5055276;28;20037;-62
2023/06/27 03:40:44;;;;;;;13.57;3.70;;;;;;;17.40;67.65;101890.84;5055364;28;20372;-62
2023/06/27 03:43:12;;;;;;;14.15;3.70;;;;;;;17.25;68.18;101897.06;5055170;28;20029;-62
2023/06/27 03:45:38;;;;;;;13.20;3.97;;;;;;;17.26;68.30;101888.19;5055461;28;20079;-62
2023/06/27 03:48:04;;;;;;;14.25;3.90;;;;;;;17.23;68.37;101891.75;5055316;28;20471;-62
2023/06/27 03:50:32;;;;;;;14.30;3.53;;;;;;;17.30;68.12;101892.66;5055428;28;20051;-62
2023/06/27 03:52:57;;;;;;;13.93;4.03;;;;;;;17.30;68.35;101894.41;5055279;28;20045;-63
2023/06/27 03:55:22;;;;;;;11.65;3.60;;;;;;;17.35;68.17;101903.34;5055020;28;20025;-62
2023/06/27 03:57:49;;;;;;;10.60;3.78;;;;;;;17.35;68.18;101901.56;5054863;28;20440;-61
2023/06/27 04:00:14;;;;;;;12.68;3.70;;;;;;;17.36;68.23;101905.09;5054586;28;20057;-63
2023/06/27 04:02:40;;;;;;;10.73;3.95;;;;;;;17.19;68.78;101903.31;5055328;28;20032;-63
2023/06/27 04:05:06;;;;;;;12.82;4.18;;;;;;;17.17;69.09;101899.78;5054917;28;20051;-62
2023/06/27 04:07:31;;;;;;;12.85;3.70;;;;;;;17.13;69.38;101902.41;5054864;28;20075;-62
2023/06/27 04:09:56;;;;;;;13.80;3.80;;;;;;;17.09;69.76;101903.31;5055123;28;20021;-62
2023/06/27 04:12:22;;;;;;;13.82;4.00;;;;;;;17.09;69.58;101895.31;5054506;28;20052;-62
2023/06/27 04:14:47;;;;;;;9.07;3.65;;;;;;;17.01;70.08;101892.63;5054717;28;20067;-62
2023/06/27 04:17:13;;;;;;;15.68;4.07;;;;;;;17.02;70.06;101894.41;5037010;28;20053;-63
2023/06/27 04:19:38;;;;;;;11.43;3.90;;;;;;;16.98;70.53;101900.63;5054729;28;20029;-62
2023/06/27 04:22:04;;;;;;;9.57;3.90;;;;;;;16.80;71.43;101897.94;5054702;28;20028;-62
2023/06/27 04:24:29;;;;;;;10.80;3.90;;;;;;;16.87;71.15;101897.94;5054820;28;20112;-63
2023/06/27 04:26:54;;;;;;;9.60;3.78;;;;;;;16.84;71.47;101895.28;5054409;28;20028;-62
2023/06/27 04:29:20;;;;;;;14.00;4.10;;;;;;;16.86;71.50;101901.50;5054403;28;20033;-62
2023/06/27 04:31:45;;;;;;;12.15;3.95;;;;;;;16.77;72.01;101898.81;5054406;28;20106;-62
2023/06/27 04:34:12;;;;;;;13.65;4.30;;;;;;;16.72;72.23;101906.81;5053190;28;20064;-62
2023/06/27 04:36:40;;;;;;;14.40;4.50;;;;;;;16.70;72.50;101904.97;5054327;28;20090;-62
2023/06/27 04:39:06;;;;;;;12.48;3.78;;;;;;;16.78;72.14;101911.25;5054096;28;20052;-62
2023/06/27 04:41:32;;;;;;;13.05;4.10;;;;;;;16.75;72.47;101906.84;5054067;28;20474;-62
2023/06/27 04:43:59;;;;;;;15.00;4.20;;;;;;;16.78;72.17;101911.25;5054034;28;20467;-62
2023/06/27 04:46:28;;;;;;;11.82;4.18;;;;;;;16.78;72.04;101893.47;5054205;28;20029;-62
2023/06/27 04:48:56;;;;;;;17.33;4.50;;;;;;;16.77;72.51;101912.16;5054133;28;20040;-62
2023/06/27 04:51:23;;;;;;;15.52;4.15;;;;;;;16.88;71.81;101920.22;5054196;28;20079;-62
2023/06/27 04:53:49;;;;;;;13.13;4.22;;;;;;;16.93;71.30;101910.41;5054067;28;20112;-63
2023/06/27 04:56:14;;;;;;;16.02;4.00;;;;;;;16.94;71.91;101902.41;5053866;28;20076;-63
2023/06/27 04:58:40;;;;;;;15.75;4.30;;;;;;;16.88;72.38;101912.19;5053533;28;20049;-62
2023/06/27 05:01:05;;;;;;;11.18;4.20;;;;;;;16.90;72.17;101918.41;5053887;28;20033;-62
2023/06/27 05:03:30;;;;;;;14.98;4.28;;;;;;;16.87;72.42;101919.28;5053723;28;20037;-62
2023/06/27 05:05:56;;;;;;;12.45;4.20;;;;;;;16.91;72.25;101914.84;5053347;28;20053;-62
2023/06/27 05:08:22;;;;;;;11.23;4.25;;;;;;;16.90;72.65;101918.41;5053470;28;20025;-62
2023/06/27 05:10:47;;;;;;;14.75;4.53;;;;;;;16.96;72.50;101919.34;5053318;28;20045;-62
2023/06/27 05:13:12;;;;;;;15.00;4.30;;;;;;;17.05;72.27;101926.47;5035622;28;20112;-62
2023/06/27 05:15:38;;;;;;;12.43;4.43;;;;;;;17.17;72.21;101918.47;5053629;28;20080;-62
2023/06/27 05:18:06;;;;;;;10.98;4.20;;;;;;;17.24;71.76;101920.22;5035778;28;20032;-62
2023/06/27 05:20:32;;;;;;;13.35;4.68;;;;;;;17.46;71.66;101918.44;5053393;28;20195;-62
2023/06/27 05:22:57;;;;;;;14.10;4.82;;;;;;;17.64;70.74;101922.88;5053595;28;20171;-62
2023/06/27 05:25:22;;;;;;;15.13;4.28;;;;;;;17.68;71.24;101918.44;5053151;28;20029;-62
2023/06/27 05:27:48;;;;;;;12.77;4.35;;;;;;;17.88;70.03;101910.41;5053294;28;20476;-62
2023/06/27 05:30:13;;;;;;;9.77;4.53;;;;;;;18.00;69.71;101919.28;5053255;28;20159;-62
2023/06/27 05:32:39;;;;;;;13.55;4.85;;;;;;;18.10;69.71;101919.25;5053064;28;20029;-62
2023/06/27 05:35:04;;;;;;;17.42;5.10;;;;;;;18.17;70.18;101915.69;5053366;28;20036;-62
2023/06/27 05:37:30;;;;;;;16.80;5.13;;;;;;;18.29;70.15;101922.78;5053167;28;20036;-62
2023/06/27 05:39:55;;;;;;;18.13;4.68;;;;;;;18.47;69.32;101918.22;5053073;28;20036;-63
2023/06/27 05:42:21;;;;;;;18.05;4.70;;;;;;;18.62;69.44;101924.38;5052994;28;20052;-62
2023/06/27 05:44:46;;;;;;;11.82;4.30;;;;;;;18.80;68.74;101918.06;5053399;28;20056;-62
2023/06/27 05:47:13;;;;;;;15.68;4.78;;;;;;;18.97;68.25;101919.78;5052686;28;20393;-62
2023/06/27 05:49:38;;;;;;;14.57;4.90;;;;;;;19.11;67.66;101916.97;5053039;28;20025;-62
2023/06/27 05:52:04;;;;;;;15.23;4.70;;;;;;;19.21;67.63;101907.97;5053113;28;20028;-62
2023/06/27 05:54:29;;;;;;;15.60;4.72;;;;;;;19.34;67.54;101905.19;5052834;28;20033;-63
2023/06/27 05:56:55;;;;;;;12.73;4.45;;;;;;;19.62;67.48;101912.13;5052599;28;20033;-63
2023/06/27 05:59:21;;;;;;;17.35;4.70;;;;;;;19.69;66.86;101912.94;5052731;28;20083;-63
2023/06/27 06:01:46;;;;;;;14.77;4.80;;;;;;;19.69;66.22;101903.09;5052886;28;20124;-62
2023/06/27 06:04:12;;;;;;;13.82;4.75;;;;;;;19.91;65.73;101910.91;5052729;28;20525;-62
2023/06/27 06:06:38;;;;;;;16.63;5.03;;;;;;;20.09;65.88;101907.16;5052697;28;20094;-62
2023/06/27 06:09:07;;;;;;;12.70;4.93;;;;;;;20.24;64.37;101910.53;5052205;28;20466;-63
2023/06/27 06:11:36;;;;;;;14.32;4.95;;;;;;;20.25;64.03;101906.91;5052477;28;20067;-62
2023/06/27 06:14:02;;;;;;;17.70;5.63;;;;;;;20.29;64.10;101905.09;5052344;28;20119;-62
2023/06/27 06:16:27;;;;;;;11.95;4.80;;;;;;;20.29;64.09;101904.22;5052710;28;20061;-62
2023/06/27 06:18:53;;;;;;;13.35;4.40;;;;;;;20.48;63.41;101909.38;5052703;28;20555;-62
2023/06/27 06:21:19;;;;;;;19.23;5.00;;;;;;;20.56;63.71;101909.28;5052507;28;20082;-62
2023/06/27 06:23:44;;;;;;;16.55;4.80;;;;;;;20.63;64.01;101916.31;5052385;28;20078;-62
2023/06/27 06:26:09;;;;;;;12.82;4.85;;;;;;;20.77;63.02;101913.47;5052219;28;20061;-62
2023/06/27 06:28:35;;;;;;;14.25;4.95;;;;;;;20.99;63.26;101909.53;5052573;28;20029;-62
2023/06/27 06:31:00;;;;;;;11.90;4.70;;;;;;;21.27;61.79;101919.81;5052348;28;20457;-62
2023/06/27 06:33:26;;;;;;;14.52;5.07;;;;;;;21.39;61.05;101925.03;5034490;28;20486;-63
2023/06/27 06:35:52;;;;;;;12.50;4.90;;;;;;;21.60;60.46;101920.22;5052246;28;20041;-62
2023/06/27 06:38:18;;;;;;;13.27;4.93;;;;;;;21.72;60.37;101922.69;5052346;28;20126;-63
2023/06/27 06:40:44;;;;;;;15.90;5.10;;;;;;;21.85;60.01;101923.34;5052029;28;20486;-62
2023/06/27 06:43:09;;;;;;;13.50;5.10;;;;;;;22.02;59.07;101926.59;5052217;28;20060;-63
2023/06/27 06:45:34;;;;;;;17.80;4.90;;;;;;;22.19;58.47;101927.19;5034427;28;20464;-62
2023/06/27 06:48:00;;;;;;;16.55;5.20;;;;;;;22.40;58.27;101935.75;5052180;28;20029;-67
2023/06/27 06:50:25;;;;;;;12.68;4.53;;;;;;;22.64;57.14;101932.50;5052143;28;20368;-62
2023/06/27 06:52:51;;;;;;;11.27;4.63;;;;;;;22.82;55.94;101936.56;5051953;28;20116;-62
2023/06/27 06:55:16;;;;;;;17.33;4.70;;;;;;;23.04;55.49;101933.41;5052262;28;20048;-62
2023/06/27 06:57:42;;;;;;;20.42;4.85;;;;;;;23.11;55.70;101937.75;5053218;28;20509;-62
2023/06/27 07:00:08;;;;;;;12.23;4.70;;;;;;;23.17;54.37;101937.63;5055976;28;20509;-62
2023/06/27 07:02:33;;;;;;;13.95;4.78;;;;;;;23.35;55.06;101929.06;5056295;28;20022;-62
2023/06/27 07:04:59;;;;;;;14.40;4.40;;;;;;;23.52;53.36;101939.44;5055951;28;20021;-62
2023/06/27 07:07:25;;;;;;;15.90;4.60;;;;;;;23.76;52.84;101931.63;5056341;28;20482;-62
2023/06/27 07:09:50;;;;;;;18.67;4.82;;;;;;;23.95;52.12;101922.13;5055889;28;20029;-61
2023/06/27 07:12:15;;;;;;;15.57;4.30;;;;;;;24.07;51.04;101928.97;5038036;28;20033;-62
2023/06/27 07:14:41;;;;;;;12.18;4.43;;;;;;;24.11;51.26;101931.56;5056065;28;20390;-63
2023/06/27 07:17:06;;;;;;;12.95;4.20;;;;;;;24.02;50.32;101933.63;5056081;28;20386;-62
2023/06/27 07:19:32;;;;;;;12.38;4.50;;;;;;;24.07;50.19;101939.78;5055909;28;20025;-62
2023/06/27 07:21:57;;;;;;;12.77;4.15;;;;;;;24.22;50.14;101933.94;5055886;28;20078;-62
2023/06/27 07:24:22;;;;;;;13.18;4.30;;;;;;;24.53;48.48;101930.38;5055557;28;20512;-62
2023/06/27 07:26:48;;;;;;;13.38;4.50;;;;;;;24.67;48.46;101938.97;5055678;28;20040;-62
2023/06/27 07:29:13;;;;;;;11.85;3.97;;;;;;;24.69;47.61;101932.56;5055679;28;20029;-63
2023/06/27 07:31:39;;;;;;;12.35;4.13;;;;;;;24.85;46.90;101941.09;5038109;28;20124;-63
2023/06/27 07:34:04;;;;;;;13.82;4.28;;;;;;;24.70;47.46;101928.03;5055541;28;20421;-63
2023/06/27 07:36:30;;;;;;;12.20;3.70;;;;;;;24.46;48.53;101932.41;5055489;28;20031;-63
2023/06/27 07:38:58;;;;;;;12.48;3.85;;;;;;;24.36;48.04;101918.22;5055467;28;20112;-61
2023/06/27 07:41:24;;;;;;;10.43;3.63;;;;;;;24.48;48.41;101922.41;5055163;28;20021;-61
2023/06/27 07:43:49;;;;;;;14.65;4.20;;;;;;;24.65;47.90;101927.31;5055429;28;20037;-61
2023/06/27 07:46:15;;;;;;;10.20;3.83;;;;;;;24.72;47.43;101937.88;5055179;28;20060;-61
2023/06/27 07:48:40;;;;;;;10.13;3.20;;;;;;;24.64;47.05;101933.66;5055288;28;20433;-62
2023/06/27 07:51:06;;;;;;;8.50;3.45;;;;;;;24.53;47.67;101931.25;5055088;28;20071;-63
2023/06/27 07:53:31;;;;;;;11.55;3.78;;;;;;;24.41;46.39;101923.50;5055068;28;20112;-61
2023/06/27 07:55:57;;;;;;;11.18;3.53;;;;;;;24.20;47.32;101927.72;5055053;28;20053;-62
2023/06/27 07:58:22;;;;;;;7.93;3.10;;;;;;;23.96;46.71;101923.88;5054749;28;20032;-61
2023/06/27 08:00:47;;;;;;;8.38;3.20;;;;;;;23.81;47.76;101919.81;5054899;28;20080;-62
2023/06/27 08:03:13;;;;;;;11.27;3.25;;;;;;;23.64;47.24;101931.03;5054846;28;20021;-61
2023/06/27 08:05:39;;;;;;;16.92;3.58;;;;;;;23.64;46.47;101933.72;5055027;28;20116;-62
2023/06/27 08:08:04;;;;;;;7.18;2.60;;;;;;;23.67;46.04;101928.25;5054672;28;20336;-61
2023/06/27 08:10:30;;;;;;;10.88;3.00;;;;;;;23.83;44.80;101923.34;5054784;28;20025;-61
2023/06/27 08:12:55;;;;;;;8.43;2.70;;;;;;;24.05;44.74;101922.75;5054625;28;20040;-61
2023/06/27 08:15:22;;;;;;;8.18;2.72;;;;;;;24.15;45.10;101922.47;5036818;28;20037;-61
2023/06/27 08:17:48;;;;;;;8.82;2.90;;;;;;;24.23;45.51;101930.31;5054789;28;20025;-62
2023/06/27 08:20:13;;;;;;;11.88;2.50;;;;;;;24.29;41.87;101921.16;5054659;28;20044;-61
2023/06/27 08:22:38;;;;;;;9.93;2.47;;;;;;;24.32;42.55;101921.94;5036832;28;20017;-62
2023/06/27 08:25:06;;;;;;;9.15;2.50;;;;;;;24.32;42.11;101924.63;5054530;28;20394;-61
2023/06/27 08:27:31;;;;;;;9.45;2.70;;;;;;;24.33;41.80;101921.03;5036510;28;20033;-61
2023/06/27 08:29:57;;;;;;;6.53;2.40;;;;;;;24.17;43.62;101920.59;5054375;28;20045;-62
2023/06/27 08:32:22;;;;;;;8.85;2.40;;;;;;;24.17;42.99;101931.38;5054558;28;20098;-62
2023/06/27 08:34:48;;;;;;;6.43;2.25;;;;;;;24.20;43.68;101917.81;5054392;28;20033;-61
2023/06/27 08:37:13;;;;;;;5.40;2.30;;;;;;;24.32;43.13;101921.94;5054242;28;20090;-61
2023/06/27 08:39:39;;;;;;;8.13;2.40;;;;;;;24.42;43.46;101919.91;5054315;28;20538;-62
2023/06/27 08:42:05;;;;;;;8.43;2.58;;;;;;;24.42;42.97;101915.38;5054144;28;20029;-61
2023/06/27 08:44:31;;;;;;;7.93;2.90;;;;;;;24.29;43.31;101913.94;5054235;28;20116;-61
2023/06/27 08:47:05;;;;;;;7.47;2.97;;;;;;;24.14;43.70;101917.06;5054140;28;20449;-61
2023/06/27 08:49:33;;;;;;;10.38;2.92;;;;;;;24.12;44.03;101914.44;5054526;28;20029;-61
2023/06/27 08:52:01;;;;;;;13.07;2.92;;;;;;;24.14;44.60;101912.56;5054097;28;20013;-61
2023/06/27 08:54:37;;;;;;;6.88;2.47;;;;;;;24.11;43.75;101919.84;5054050;28;20037;-61
2023/06/27 08:57:04;;;;;;;6.80;2.70;;;;;;;24.01;44.76;101912.97;5053876;28;20470;-61
2023/06/27 08:59:34;;;;;;;9.23;2.78;;;;;;;24.05;44.50;101911.94;5053897;28;20044;-61
2023/06/27 09:02:01;;;;;;;9.05;2.83;;;;;;;24.18;45.38;101916.94;5053906;28;20151;-61
2023/06/27 09:04:27;;;;;;;8.25;3.03;;;;;;;24.33;45.59;101915.63;5035666;28;20032;-61
2023/06/27 09:06:54;;;;;;;8.75;2.53;;;;;;;24.35;44.56;101908.34;5053598;28;20033;-62
2023/06/27 09:09:21;;;;;;;7.28;2.47;;;;;;;24.32;44.58;101911.13;5035583;28;20040;-62
2023/06/27 09:11:47;;;;;;;9.98;3.45;;;;;;;24.40;43.20;101908.25;5053397;28;20029;-62
2023/06/27 09:14:13;;;;;;;10.93;3.53;;;;;;;24.41;44.46;101908.22;5053600;28;20029;-62
2023/06/27 09:16:40;;;;;;;8.45;3.38;;;;;;;24.41;44.54;101913.63;5053724;28;20033;-62
2023/06/27 09:19:05;;;;;;;11.75;2.72;;;;;;;24.31;44.41;101912.06;5053529;28;20044;-62
2023/06/27 09:21:34;;;;;;;11.43;2.97;;;;;;;24.27;44.27;101909.50;5045056;28;20033;-62
2023/06/27 09:24:05;;;;;;;8.68;2.85;;;;;;;24.27;45.02;101904.09;5053780;28;20028;-62
2023/06/27 09:26:30;;;;;;;8.00;2.60;;;;;;;24.43;44.75;101906.34;5053525;28;20031;-62
2023/06/27 09:28:59;;;;;;;12.98;2.65;;;;;;;24.41;43.34;101905.53;5053499;28;20390;-62
2023/06/27 09:31:24;;;;;;;8.18;2.45;;;;;;;24.34;42.34;101906.59;5053237;28;20021;-62
2023/06/27 09:33:49;;;;;;;9.77;2.60;;;;;;;24.47;42.20;101908.03;5053225;28;20032;-62
2023/06/27 09:36:38;;;;;;;9.00;2.67;;;;;;;24.59;42.26;101922.09;5053372;28;20109;-62
2023/06/27 09:39:05;;;;;;;10.02;2.70;;;;;;;24.62;41.59;101914.75;5053289;28;20044;-62
2023/06/27 09:41:44;;;;;;;6.07;2.40;;;;;;;24.56;42.30;101916.78;5053093;28;20040;-62
2023/06/27 09:44:11;;;;;;;5.25;2.30;;;;;;;24.59;43.21;101924.81;5053179;28;20025;-62
2023/06/27 09:46:37;;;;;;;10.00;2.55;;;;;;;24.68;42.41;101924.53;5053374;28;20182;-62
2023/06/27 09:49:05;;;;;;;8.18;2.50;;;;;;;24.86;40.50;101921.22;5053181;28;20072;-62
2023/06/27 09:51:32;;;;;;;8.02;2.50;;;;;;;24.93;41.69;101925.53;5053473;28;20031;-62
2023/06/27 09:53:57;;;;;;;7.35;2.20;;;;;;;25.17;40.99;101929.25;5053272;28;20032;-62
2023/06/27 09:56:33;;;;;;;7.75;2.10;;;;;;;25.54;39.92;101924.44;5023632;28;20041;-62
2023/06/27 09:59:10;;;;;;;7.90;2.40;;;;;;;25.84;38.82;101927.94;5032608;28;20139;-62
2023/06/27 10:01:39;;;;;;;7.50;2.30;;;;;;;26.21;38.47;101925.66;5032912;28;20151;-62
2023/06/27 10:04:06;;;;;;;5.40;2.20;;;;;;;26.37;36.12;101917.81;5032831;28;20030;-62
2023/06/27 10:06:32;;;;;;;9.93;2.30;;;;;;;26.68;36.96;101922.06;5032739;28;20474;-62
2023/06/27 10:08:58;;;;;;;8.18;2.20;;;;;;;26.79;35.71;101924.38;5032322;28;20483;-62
2023/06/27 10:11:24;;;;;;;5.38;2.20;;;;;;;26.63;36.01;101930.38;5032504;28;20022;-62
2023/06/27 10:13:50;;;;;;;5.70;2.20;;;;;;;26.87;35.68;101917.69;5032887;28;20029;-62
2023/06/27 10:16:17;;;;;;;7.43;2.00;;;;;;;27.26;32.99;101916.16;5032655;28;20047;-62
2023/06/27 10:18:43;;;;;;;4.65;2.00;;;;;;;27.53;33.30;101923.09;5038882;28;20025;-62
2023/06/27 10:21:09;;;;;;;8.00;2.10;;;;;;;27.51;32.27;101921.44;5047593;28;20028;-61
2023/06/27 10:23:37;;;;;;;7.25;2.25;;;;;;;27.20;32.73;101910.03;5034347;28;20027;-61
2023/06/27 10:26:03;;;;;;;5.30;2.15;;;;;;;27.22;34.05;101931.69;5052233;28;20120;-61
2023/06/27 10:28:32;;;;;;;5.20;1.98;;;;;;;27.21;33.20;101917.22;5034506;28;20100;-62
2023/06/27 10:30:58;;;;;;;5.78;2.13;;;;;;;27.55;33.47;101923.06;5052166;28;20031;-62
2023/06/27 10:33:31;;;;;;;7.30;2.40;;;;;;;27.83;33.58;101920.91;5051479;28;20033;-62
2023/06/27 10:36:02;;;;;;;5.85;2.00;;;;;;;27.83;33.03;101920.03;5052424;28;20025;-62
2023/06/27 10:38:35;;;;;;;5.65;2.20;;;;;;;27.82;32.69;101916.44;5052372;28;20481;-62
2023/06/27 10:41:05;;;;;;;10.85;2.42;;;;;;;27.91;30.08;101918.75;5052332;28;20032;-62
2023/06/27 10:43:40;;;;;;;6.43;1.77;;;;;;;28.19;30.69;101917.50;5052299;28;20083;-62
2023/06/27 10:46:10;;;;;;;5.25;1.90;;;;;;;28.29;29.61;101910.69;5052205;28;20390;-62
2023/06/27 10:48:51;;;;;;;5.45;2.08;;;;;;;28.45;30.22;101905.44;5052230;28;20017;-62
2023/06/27 10:51:19;;;;;;;7.20;2.05;;;;;;;28.47;29.41;101911.69;5052372;28;20079;-61
2023/06/27 10:54:07;;;;;;;6.85;1.92;;;;;;;28.63;30.07;101914.56;5052112;28;20083;-62
2023/06/27 10:56:37;;;;;;;7.07;2.00;;;;;;;28.63;29.15;101915.44;5051818;28;20037;-61
2023/06/27 10:59:09;;;;;;;5.38;2.00;;;;;;;28.68;29.94;101910.66;5051817;28;20380;-62
2023/06/27 11:01:34;;;;;;;;;;;;;;;28.90;30.06;101904.16;5044247;28;20545;-62
2023/06/27 11:04:14;;;;;;;4.78;2.00;;;;;;;28.49;28.94;101895.31;5014169;28;19921;-62
2023/06/27 11:06:40;;;;;;;4.03;1.70;;;;;;;28.19;29.65;101899.34;5032120;28;20026;-61
2023/06/27 11:09:08;;;;;;;3.03;1.70;;;;;;;28.34;29.18;101902.31;5031991;28;20106;-62
2023/06/27 11:11:34;;;;;;;4.75;2.00;;;;;;;28.60;28.76;101901.97;5031096;28;20060;-61
2023/06/27 11:14:09;;;;;;;3.90;1.83;;;;;;;28.66;29.15;101908.97;5031486;28;20072;-61
2023/06/27 11:16:35;;;;;;;9.45;2.08;;;;;;;28.44;28.43;101900.97;5031707;28;20022;-61